Terminal Aerodrome Forecast
Issued by NWS

Home | Current Version | Previous Version | Text Only | Print | Product List | Glossary On
Versions: 1 2 3 4 5 6 7 8 9 10 11 12 13 14 15 16 17 18 19 20 21 22 23 24 25 26 27 28 29 30 31 32
179
FTUS45 KSLC 291746
TAFPVU
TAF
KPVU 291746Z 2918/3018 29009KT P6SM -SHRA SCT020 BKN040
     FM292300 30008KT P6SM VCSH SCT040 BKN060
     FM300400 14005KT P6SM BKN090
     FM301200 31008KT P6SM SCT040 BKN060
      AMD LTD TO CLD VIS AND WIND=

USA.gov is the U.S. government's official web portal to all federal, state and local government web resources and services.